createdAt,value
2022-09-27T00:00:26.300Z,17.00
2022-09-27T00:02:52.816Z,17.00
2022-09-27T00:05:19.359Z,17.10
2022-09-27T00:07:45.818Z,17.20
2022-09-27T00:10:12.287Z,17.20
2022-09-27T00:12:38.753Z,17.10
2022-09-27T00:15:05.226Z,17.00
2022-09-27T00:17:31.706Z,17.00
2022-09-27T00:19:58.178Z,17.00
2022-09-27T00:22:24.651Z,17.10
2022-09-27T00:24:51.121Z,17.20
2022-09-27T00:27:17.603Z,17.20
2022-09-27T00:29:44.081Z,17.10
2022-09-27T00:32:10.555Z,17.00
2022-09-27T00:34:37.014Z,17.00
2022-09-27T00:37:03.491Z,17.00
2022-09-27T00:39:29.973Z,17.00
2022-09-27T00:41:56.449Z,17.00
2022-09-27T00:44:22.929Z,17.00
2022-09-27T00:46:49.399Z,16.90
2022-09-27T00:49:16.064Z,16.90
2022-09-27T00:51:42.650Z,17.00
2022-09-27T00:54:09.129Z,17.00
2022-09-27T00:56:35.607Z,17.00
2022-09-27T00:59:02.075Z,17.10
2022-09-27T01:01:28.572Z,17.00
2022-09-27T01:03:55.079Z,17.20
2022-09-27T01:06:21.573Z,17.20
2022-09-27T01:08:48.041Z,17.10
2022-09-27T01:11:14.511Z,17.10
2022-09-27T01:13:40.989Z,17.10
2022-09-27T01:16:07.511Z,16.90
2022-09-27T01:18:34.041Z,16.90
2022-09-27T01:21:00.534Z,17.00
2022-09-27T01:23:27.010Z,17.00
2022-09-27T01:25:53.481Z,16.90
2022-09-27T01:28:19.958Z,16.80
2022-09-27T01:30:46.599Z,16.90
2022-09-27T01:33:13.133Z,16.90
2022-09-27T01:35:39.625Z,16.90
2022-09-27T01:38:06.084Z,16.90
2022-09-27T01:40:32.662Z,16.90
2022-09-27T01:42:59.166Z,17.00
2022-09-27T01:45:25.653Z,17.00
2022-09-27T01:47:52.113Z,17.00
2022-09-27T01:50:18.605Z,17.00
2022-09-27T01:52:45.063Z,17.00
2022-09-27T01:55:11.561Z,17.00
2022-09-27T01:57:38.037Z,16.90
2022-09-27T02:00:04.535Z,16.90
2022-09-27T02:02:31.051Z,16.90
2022-09-27T02:04:57.580Z,17.00
2022-09-27T02:07:24.062Z,16.90
2022-09-27T02:09:50.553Z,16.90
2022-09-27T02:12:17.029Z,16.90
2022-09-27T02:14:43.488Z,16.90
2022-09-27T02:17:09.965Z,16.90
2022-09-27T02:19:36.432Z,16.90
2022-09-27T02:22:02.891Z,16.90
2022-09-27T02:24:29.340Z,16.90
2022-09-27T02:26:55.830Z,16.90
2022-09-27T02:29:22.300Z,16.90
2022-09-27T02:31:48.755Z,16.90
2022-09-27T02:34:15.219Z,16.90
2022-09-27T02:36:41.689Z,16.80
2022-09-27T02:39:08.171Z,16.80
2022-09-27T02:41:34.662Z,16.80
2022-09-27T02:44:01.141Z,16.80
2022-09-27T02:46:28.813Z,16.70
2022-09-27T02:48:55.295Z,16.60
2022-09-27T02:51:21.769Z,16.60
2022-09-27T02:53:48.236Z,16.70
2022-09-27T02:56:14.704Z,16.70
2022-09-27T02:58:41.185Z,16.70
2022-09-27T03:01:07.725Z,16.70
2022-09-27T03:03:34.230Z,16.70
2022-09-27T03:06:00.723Z,16.80
2022-09-27T03:08:27.204Z,16.80
2022-09-27T03:10:53.699Z,16.70
2022-09-27T03:13:20.170Z,16.80
2022-09-27T03:15:46.645Z,16.80
2022-09-27T03:18:13.101Z,16.70
2022-09-27T03:20:39.564Z,16.70
2022-09-27T03:23:06.028Z,16.70
2022-09-27T03:25:32.521Z,16.70
2022-09-27T03:27:58.994Z,16.80
2022-09-27T03:30:25.504Z,16.80
2022-09-27T03:32:52.000Z,16.70
2022-09-27T03:35:18.482Z,16.70
2022-09-27T03:37:44.969Z,16.70
2022-09-27T03:40:11.442Z,16.70
2022-09-27T03:42:37.899Z,16.80
2022-09-27T03:45:04.375Z,16.80
2022-09-27T03:47:30.855Z,16.80
2022-09-27T03:49:57.345Z,16.80
2022-09-27T03:52:23.824Z,16.80
2022-09-27T03:54:50.297Z,16.80
2022-09-27T03:57:16.787Z,16.80
2022-09-27T03:59:43.256Z,16.80
2022-09-27T04:02:09.775Z,16.90
2022-09-27T04:04:36.274Z,16.80
2022-09-27T04:07:02.739Z,16.80
2022-09-27T04:09:29.209Z,16.80
2022-09-27T04:11:55.680Z,16.80
2022-09-27T04:14:22.145Z,16.80
2022-09-27T04:16:48.803Z,16.70
2022-09-27T04:19:15.430Z,16.80
2022-09-27T04:21:42.011Z,16.70
2022-09-27T04:24:08.470Z,16.70
2022-09-27T04:26:34.935Z,16.70
2022-09-27T04:29:01.413Z,16.70
2022-09-27T04:31:27.916Z,16.70
2022-09-27T04:33:54.441Z,16.80
2022-09-27T04:36:20.926Z,16.70
2022-09-27T04:38:47.402Z,16.70
2022-09-27T04:41:13.890Z,16.80
2022-09-27T04:43:40.351Z,16.80
2022-09-27T04:46:06.944Z,16.70
2022-09-27T04:48:33.465Z,16.80
2022-09-27T04:50:59.954Z,16.80
2022-09-27T04:53:26.435Z,16.80
2022-09-27T04:55:52.937Z,16.80
2022-09-27T04:58:19.418Z,16.80
2022-09-27T05:00:45.904Z,16.80
2022-09-27T05:03:12.379Z,16.80
2022-09-27T05:05:38.873Z,16.70
2022-09-27T05:08:05.355Z,16.70
2022-09-27T05:10:31.832Z,16.80
2022-09-27T05:12:58.315Z,16.80
2022-09-27T05:15:24.781Z,16.80
2022-09-27T05:17:51.257Z,16.80
2022-09-27T05:20:17.714Z,16.70
2022-09-27T05:22:44.182Z,16.80
2022-09-27T05:25:10.679Z,16.80
2022-09-27T05:27:37.166Z,16.80
2022-09-27T05:30:03.640Z,16.80
2022-09-27T05:32:30.127Z,16.90
2022-09-27T05:34:56.610Z,16.90
2022-09-27T05:37:23.093Z,16.90
2022-09-27T05:39:49.557Z,16.90
2022-09-27T05:42:16.024Z,16.70
2022-09-27T05:44:42.526Z,16.90
2022-09-27T05:47:09.005Z,16.90
2022-09-27T05:49:35.489Z,16.90
2022-09-27T05:52:01.962Z,16.90
2022-09-27T05:54:28.437Z,16.90
2022-09-27T05:56:54.903Z,16.80
2022-09-27T05:59:21.369Z,16.80
2022-09-27T06:01:47.861Z,16.90
2022-09-27T06:04:14.446Z,16.80
2022-09-27T06:06:40.964Z,16.80
2022-09-27T06:09:07.441Z,16.90
2022-09-27T06:11:33.937Z,16.80
2022-09-27T06:14:00.416Z,16.80
2022-09-27T06:16:26.934Z,16.90
2022-09-27T06:18:53.422Z,16.80
2022-09-27T06:21:19.905Z,16.80
2022-09-27T06:23:47.321Z,16.80
2022-09-27T06:26:15.255Z,16.80
2022-09-27T06:28:41.730Z,16.80
2022-09-27T06:31:08.311Z,17.00
2022-09-27T06:33:34.901Z,16.90
2022-09-27T06:36:01.372Z,16.90
2022-09-27T06:38:27.828Z,16.90
2022-09-27T06:40:54.343Z,16.90
2022-09-27T06:43:20.830Z,16.90
2022-09-27T06:45:47.360Z,16.90
2022-09-27T06:48:13.842Z,16.90
2022-09-27T06:50:40.319Z,16.90
2022-09-27T06:53:06.800Z,16.90
2022-09-27T06:55:33.301Z,16.80
2022-09-27T06:57:59.773Z,16.90
2022-09-27T07:00:26.399Z,16.90
2022-09-27T07:02:52.919Z,16.90
2022-09-27T07:05:19.384Z,17.00
2022-09-27T07:07:45.846Z,16.80
2022-09-27T07:10:12.321Z,16.80
2022-09-27T07:12:40.807Z,16.80
2022-09-27T07:15:07.289Z,16.80
2022-09-27T07:17:33.750Z,16.80
2022-09-27T07:20:00.242Z,16.90
2022-09-27T07:22:26.730Z,16.80
2022-09-27T07:24:53.198Z,16.80
2022-09-27T07:27:19.665Z,16.80
2022-09-27T07:29:46.131Z,16.80
2022-09-27T07:32:12.601Z,16.70
2022-09-27T07:34:39.064Z,16.60
2022-09-27T07:37:05.595Z,16.80
2022-09-27T07:39:32.110Z,16.70
2022-09-27T07:41:58.588Z,16.80
2022-09-27T07:44:25.057Z,16.70
2022-09-27T07:46:51.539Z,16.80
2022-09-27T07:49:18.006Z,16.80
2022-09-27T07:51:44.493Z,16.70
2022-09-27T07:54:10.970Z,16.80
2022-09-27T07:56:37.444Z,16.80
2022-09-27T07:59:03.935Z,16.80
2022-09-27T08:01:30.458Z,16.80
2022-09-27T08:03:57.011Z,16.80
2022-09-27T08:06:23.495Z,16.80
2022-09-27T08:08:49.969Z,16.80
2022-09-27T08:11:16.480Z,16.90
2022-09-27T08:13:42.962Z,16.80
2022-09-27T08:16:09.481Z,16.70
2022-09-27T08:18:35.966Z,16.70
2022-09-27T08:21:02.473Z,16.90
2022-09-27T08:23:28.933Z,16.80
2022-09-27T08:25:55.422Z,16.80
2022-09-27T08:28:21.892Z,16.70
2022-09-27T08:30:48.394Z,16.70
2022-09-27T08:33:14.929Z,16.70
2022-09-27T08:35:41.416Z,16.80
2022-09-27T08:38:07.890Z,16.70
2022-09-27T08:40:34.421Z,16.70
2022-09-27T08:43:00.904Z,16.80
2022-09-27T08:45:27.390Z,16.80
2022-09-27T08:47:53.889Z,16.70
2022-09-27T08:50:20.348Z,16.70
2022-09-27T08:52:46.831Z,16.60
2022-09-27T08:55:13.316Z,16.80
2022-09-27T08:57:39.803Z,16.80
2022-09-27T09:00:06.280Z,16.80
2022-09-27T09:02:32.808Z,16.70
2022-09-27T09:04:59.305Z,16.70
2022-09-27T09:07:25.794Z,16.70
2022-09-27T09:09:52.264Z,16.50
2022-09-27T09:12:18.739Z,16.60
2022-09-27T09:14:45.223Z,16.70
2022-09-27T09:17:11.697Z,16.70
2022-09-27T09:19:38.170Z,16.80
2022-09-27T09:22:04.649Z,16.80
2022-09-27T09:24:31.108Z,16.80
2022-09-27T09:26:57.863Z,16.70
2022-09-27T09:29:24.382Z,16.80
2022-09-27T09:31:50.953Z,16.80
2022-09-27T09:34:17.459Z,16.80
2022-09-27T09:36:43.931Z,16.70
2022-09-27T09:39:10.409Z,16.60
2022-09-27T09:41:36.852Z,16.70
2022-09-27T09:44:03.313Z,16.80
2022-09-27T09:46:29.775Z,16.70
2022-09-27T09:48:56.251Z,16.70
2022-09-27T09:51:22.753Z,16.70
2022-09-27T09:53:49.226Z,16.60
2022-09-27T09:56:15.691Z,16.70
2022-09-27T09:58:42.165Z,16.70
2022-09-27T10:01:08.724Z,16.80
2022-09-27T10:03:35.206Z,16.80
2022-09-27T10:06:01.706Z,16.70
2022-09-27T10:08:28.177Z,16.60
2022-09-27T10:10:54.686Z,16.60
2022-09-27T10:13:21.168Z,16.60
2022-09-27T10:15:47.682Z,16.70
2022-09-27T10:18:14.172Z,16.70
2022-09-27T10:20:40.673Z,16.90
2022-09-27T10:23:07.154Z,16.80
2022-09-27T10:25:33.646Z,16.80
2022-09-27T10:28:00.141Z,16.90
2022-09-27T10:30:26.621Z,16.80
2022-09-27T10:32:53.097Z,16.70
2022-09-27T10:35:23.607Z,16.80
2022-09-27T10:37:50.482Z,16.80
2022-09-27T10:40:17.000Z,16.80
2022-09-27T10:42:43.508Z,16.80
2022-09-27T10:45:09.962Z,16.80
2022-09-27T10:47:36.450Z,16.90
2022-09-27T10:50:02.912Z,16.80
2022-09-27T10:52:29.381Z,16.80
2022-09-27T10:54:55.849Z,16.90
2022-09-27T10:57:22.330Z,16.90
2022-09-27T10:59:48.815Z,16.90
2022-09-27T11:02:15.278Z,16.90
2022-09-27T11:04:41.811Z,16.90
2022-09-27T11:07:08.328Z,16.90
2022-09-27T11:09:34.791Z,16.80
2022-09-27T11:12:01.263Z,16.70
2022-09-27T11:14:27.731Z,16.70
2022-09-27T11:16:54.205Z,16.70
2022-09-27T11:19:20.665Z,16.80
2022-09-27T11:21:47.122Z,16.70
2022-09-27T11:24:13.634Z,16.80
2022-09-27T11:26:40.112Z,16.90
2022-09-27T11:29:06.587Z,16.90
2022-09-27T11:31:33.126Z,16.90
2022-09-27T11:33:59.621Z,16.90
2022-09-27T11:36:26.097Z,17.00
2022-09-27T11:38:53.639Z,17.00
2022-09-27T11:41:20.458Z,16.90
2022-09-27T11:43:46.931Z,16.80
2022-09-27T11:46:19.140Z,16.70
2022-09-27T11:48:48.844Z,16.70
2022-09-27T11:51:15.319Z,16.70
2022-09-27T11:53:41.790Z,16.70
2022-09-27T11:56:08.306Z,16.70
2022-09-27T11:58:34.786Z,16.70
2022-09-27T12:01:01.270Z,16.70
2022-09-27T12:03:27.755Z,16.70
2022-09-27T12:05:58.081Z,16.70
2022-09-27T12:08:25.318Z,16.70
2022-09-27T12:10:51.801Z,16.70
2022-09-27T12:13:18.298Z,16.70
2022-09-27T12:15:44.805Z,16.70
2022-09-27T12:18:11.296Z,16.60
2022-09-27T12:20:37.767Z,16.80
2022-09-27T12:23:04.250Z,16.80
2022-09-27T12:25:30.736Z,16.70
2022-09-27T12:27:57.225Z,16.70
2022-09-27T12:30:23.701Z,16.70
2022-09-27T12:32:50.179Z,16.70
2022-09-27T12:35:16.659Z,16.70
2022-09-27T12:37:43.153Z,16.60
2022-09-27T12:40:09.638Z,16.70
2022-09-27T12:42:36.115Z,16.60
2022-09-27T12:45:02.599Z,16.70
2022-09-27T12:47:29.100Z,16.70
2022-09-27T12:49:58.924Z,16.70
2022-09-27T12:52:27.822Z,16.60
2022-09-27T12:54:54.294Z,16.60
2022-09-27T12:57:20.778Z,16.50
2022-09-27T12:59:47.256Z,16.60
2022-09-27T13:02:13.863Z,16.70
2022-09-27T13:04:40.370Z,16.60
2022-09-27T13:07:06.859Z,16.70
2022-09-27T13:09:33.331Z,16.70
2022-09-27T13:11:59.824Z,16.70
2022-09-27T13:14:26.309Z,16.80
2022-09-27T13:16:52.774Z,16.70
2022-09-27T13:19:21.899Z,16.70
2022-09-27T13:21:50.377Z,16.60
2022-09-27T13:24:16.845Z,16.80
2022-09-27T13:26:43.307Z,16.80
2022-09-27T13:29:09.786Z,16.70
2022-09-27T13:31:36.300Z,16.80
2022-09-27T13:34:02.788Z,16.70
2022-09-27T13:36:29.247Z,16.70
2022-09-27T13:38:55.726Z,16.70
2022-09-27T13:41:22.189Z,16.70
2022-09-27T13:43:48.671Z,16.70
2022-09-27T13:46:15.215Z,16.60
2022-09-27T13:48:41.742Z,16.60
2022-09-27T13:51:08.223Z,16.70
2022-09-27T13:53:34.723Z,16.60
2022-09-27T13:56:01.201Z,16.60
2022-09-27T13:58:27.702Z,16.70
2022-09-27T14:00:54.257Z,16.60
2022-09-27T14:03:20.856Z,16.60
2022-09-27T14:05:47.325Z,16.60
2022-09-27T14:08:13.804Z,16.60
2022-09-27T14:10:40.269Z,16.60
2022-09-27T14:13:06.749Z,16.60
2022-09-27T14:15:33.239Z,16.50
2022-09-27T14:17:59.726Z,16.60
2022-09-27T14:20:26.198Z,16.70
2022-09-27T14:22:52.673Z,16.70
2022-09-27T14:25:19.159Z,16.60
2022-09-27T14:27:45.640Z,16.70
2022-09-27T14:30:12.327Z,16.80
2022-09-27T14:32:38.807Z,16.70
2022-09-27T14:35:05.279Z,16.60
2022-09-27T14:37:35.194Z,16.70
2022-09-27T14:40:01.664Z,16.80
2022-09-27T14:42:28.135Z,16.80
2022-09-27T14:44:54.598Z,16.70
2022-09-27T14:47:21.072Z,16.70
2022-09-27T14:49:47.533Z,16.80
2022-09-27T14:52:14.010Z,16.80
2022-09-27T14:54:40.500Z,16.70
2022-09-27T14:57:06.959Z,16.70
2022-09-27T14:59:33.449Z,16.70
2022-09-27T15:01:59.931Z,16.70
2022-09-27T15:04:26.477Z,16.70
2022-09-27T15:06:53.007Z,16.70
2022-09-27T15:09:19.472Z,16.60
2022-09-27T15:11:45.947Z,16.70
2022-09-27T15:14:12.468Z,16.70
2022-09-27T15:16:38.940Z,16.70
2022-09-27T15:19:05.425Z,16.70
2022-09-27T15:21:31.922Z,16.80
2022-09-27T15:23:58.407Z,16.80
2022-09-27T15:26:24.979Z,16.80
2022-09-27T15:28:51.447Z,16.80
2022-09-27T15:31:17.963Z,16.70
2022-09-27T15:33:44.520Z,16.80
2022-09-27T15:36:11.005Z,16.80
2022-09-27T15:38:37.482Z,16.90
2022-09-27T15:41:04.102Z,16.70
2022-09-27T15:43:30.674Z,16.80
2022-09-27T15:45:57.138Z,16.80
2022-09-27T15:48:23.596Z,16.80
2022-09-27T15:50:50.060Z,16.80
2022-09-27T15:53:16.517Z,16.90
2022-09-27T15:55:42.996Z,16.90
2022-09-27T15:58:09.455Z,16.90
2022-09-27T16:00:35.985Z,16.80
2022-09-27T16:03:02.519Z,16.80
2022-09-27T16:05:28.994Z,16.70
2022-09-27T16:07:55.455Z,16.80
2022-09-27T16:10:21.926Z,16.70
2022-09-27T16:12:48.406Z,16.80
2022-09-27T16:15:14.866Z,16.80
2022-09-27T16:17:41.339Z,16.80
2022-09-27T16:20:07.823Z,16.90
2022-09-27T16:22:34.293Z,16.90
2022-09-27T16:25:00.789Z,16.80
2022-09-27T16:27:27.244Z,16.90
2022-09-27T16:29:53.739Z,16.90
2022-09-27T16:32:20.203Z,16.90
2022-09-27T16:34:46.710Z,16.80
2022-09-27T16:37:13.173Z,16.80
2022-09-27T16:39:39.627Z,16.80
2022-09-27T16:42:06.095Z,16.80
2022-09-27T16:44:32.566Z,17.00
2022-09-27T16:46:59.069Z,16.90
2022-09-27T16:49:25.919Z,16.90
2022-09-27T16:51:52.462Z,17.00
2022-09-27T16:54:18.938Z,16.90
2022-09-27T16:56:45.402Z,17.00
2022-09-27T16:59:11.887Z,17.00
2022-09-27T17:01:38.428Z,16.90
2022-09-27T17:04:04.949Z,16.80
2022-09-27T17:06:31.421Z,16.90
2022-09-27T17:08:57.878Z,16.80
2022-09-27T17:11:24.345Z,17.00
2022-09-27T17:13:50.822Z,16.90
2022-09-27T17:16:17.325Z,16.90
2022-09-27T17:18:43.822Z,16.90
2022-09-27T17:21:10.306Z,16.90
2022-09-27T17:23:36.794Z,17.00
2022-09-27T17:26:03.293Z,17.00
2022-09-27T17:28:29.757Z,17.00
2022-09-27T17:30:56.301Z,17.00
2022-09-27T17:33:22.882Z,17.10
2022-09-27T17:35:49.406Z,17.00
2022-09-27T17:38:15.890Z,17.00
2022-09-27T17:40:42.465Z,17.00
2022-09-27T17:43:09.011Z,17.00
2022-09-27T17:45:35.515Z,17.00
2022-09-27T17:48:01.996Z,17.00
2022-09-27T17:50:28.525Z,17.00
2022-09-27T17:52:55.007Z,17.00
2022-09-27T17:55:21.506Z,17.00
2022-09-27T17:57:47.993Z,17.00
2022-09-27T18:00:14.489Z,17.00
2022-09-27T18:02:41.209Z,17.00
2022-09-27T18:05:07.831Z,17.00
2022-09-27T18:07:34.301Z,17.00
2022-09-27T18:10:00.771Z,17.10
2022-09-27T18:12:27.249Z,17.10
2022-09-27T18:14:53.726Z,17.10
2022-09-27T18:17:20.186Z,17.00
2022-09-27T18:19:46.647Z,17.10
2022-09-27T18:22:13.131Z,17.00
2022-09-27T18:24:39.599Z,17.10
2022-09-27T18:27:06.097Z,17.10
2022-09-27T18:29:32.575Z,17.10
2022-09-27T18:31:59.066Z,17.10
2022-09-27T18:34:25.567Z,17.00
2022-09-27T18:36:52.056Z,17.00
2022-09-27T18:39:18.538Z,17.00
2022-09-27T18:41:45.104Z,17.00
2022-09-27T18:44:11.733Z,17.00
2022-09-27T18:46:38.407Z,17.00
2022-09-27T18:49:05.075Z,17.00
2022-09-27T18:51:31.568Z,17.00
2022-09-27T18:53:58.022Z,17.00
2022-09-27T18:56:24.507Z,17.00
2022-09-27T18:58:50.977Z,17.00
2022-09-27T19:01:17.510Z,17.00
2022-09-27T19:03:44.054Z,17.00
2022-09-27T19:06:10.540Z,17.00
2022-09-27T19:08:37.008Z,16.90
2022-09-27T19:11:03.472Z,16.90
2022-09-27T19:13:36.324Z,17.00
2022-09-27T19:16:08.321Z,17.00
2022-09-27T19:18:34.825Z,17.10
2022-09-27T19:21:01.290Z,17.00
2022-09-27T19:23:27.759Z,17.00
2022-09-27T19:25:54.265Z,17.00
2022-09-27T19:28:20.743Z,17.00
2022-09-27T19:30:47.242Z,17.00
2022-09-27T19:33:13.708Z,17.00
2022-09-27T19:35:40.193Z,17.00
2022-09-27T19:38:06.646Z,17.00
2022-09-27T19:40:33.175Z,16.90
2022-09-27T19:42:59.651Z,16.90
2022-09-27T19:45:26.127Z,16.90
2022-09-27T19:47:52.591Z,16.90
2022-09-27T19:50:19.074Z,17.00
2022-09-27T19:52:45.527Z,17.00
2022-09-27T19:55:12.014Z,17.00
2022-09-27T19:57:38.471Z,17.00
2022-09-27T20:00:04.953Z,17.00
2022-09-27T20:02:31.537Z,17.00
2022-09-27T20:04:58.146Z,17.00
2022-09-27T20:07:24.626Z,17.00
2022-09-27T20:09:51.100Z,17.10
2022-09-27T20:12:17.574Z,17.00
2022-09-27T20:14:44.050Z,17.00
2022-09-27T20:17:10.521Z,17.00
2022-09-27T20:19:36.988Z,17.10
2022-09-27T20:22:03.443Z,17.10
2022-09-27T20:24:29.852Z,17.10
2022-09-27T20:26:56.315Z,17.10
2022-09-27T20:29:22.799Z,17.10
2022-09-27T20:32:15.450Z,17.10
2022-09-27T20:34:35.719Z,17.10
2022-09-27T20:37:02.202Z,17.20
2022-09-27T20:39:28.667Z,17.10
2022-09-27T20:41:55.153Z,17.10
2022-09-27T20:44:21.634Z,17.00
2022-09-27T20:46:48.180Z,17.10
2022-09-27T20:49:14.784Z,17.10
2022-09-27T20:51:41.338Z,17.10
2022-09-27T20:54:07.804Z,17.10
2022-09-27T20:56:34.282Z,17.10
2022-09-27T20:59:00.744Z,17.10
2022-09-27T21:01:27.210Z,17.20
2022-09-27T21:03:53.667Z,17.10
2022-09-27T21:06:20.130Z,17.10
2022-09-27T21:08:46.603Z,17.20
2022-09-27T21:11:13.079Z,17.10
2022-09-27T21:13:39.550Z,17.10
2022-09-27T21:16:06.064Z,17.10
2022-09-27T21:18:32.582Z,17.10
2022-09-27T21:20:59.083Z,17.10
2022-09-27T21:23:25.543Z,17.20
2022-09-27T21:25:52.005Z,17.20
2022-09-27T21:28:18.479Z,17.20
2022-09-27T21:30:44.958Z,17.20
2022-09-27T21:33:11.421Z,17.20
2022-09-27T21:35:37.913Z,17.20
2022-09-27T21:38:04.373Z,17.10
2022-09-27T21:40:30.861Z,17.10
2022-09-27T21:42:57.985Z,17.20
2022-09-27T21:45:24.561Z,17.20
2022-09-27T21:47:51.032Z,17.20
2022-09-27T21:50:17.511Z,17.20
2022-09-27T21:52:43.983Z,17.30
2022-09-27T21:55:10.490Z,17.30
2022-09-27T21:57:36.960Z,17.20
2022-09-27T22:00:03.466Z,17.20
2022-09-27T22:02:30.007Z,17.20
2022-09-27T22:04:56.566Z,17.10
2022-09-27T22:07:23.025Z,17.10
2022-09-27T22:09:49.500Z,17.00
2022-09-27T22:12:15.967Z,17.00
2022-09-27T22:14:42.429Z,17.00
2022-09-27T22:17:08.922Z,16.90
2022-09-27T22:19:35.386Z,17.00
2022-09-27T22:22:01.879Z,16.90
2022-09-27T22:24:28.368Z,17.00
2022-09-27T22:26:54.860Z,17.00
2022-09-27T22:29:21.334Z,16.90
2022-09-27T22:31:47.896Z,16.90
2022-09-27T22:34:14.456Z,16.90
2022-09-27T22:36:40.939Z,16.90
2022-09-27T22:39:07.404Z,16.90
2022-09-27T22:41:33.873Z,16.90
2022-09-27T22:44:00.342Z,17.00
2022-09-27T22:46:26.940Z,17.00
2022-09-27T22:48:53.502Z,17.00
2022-09-27T22:51:19.978Z,17.00
2022-09-27T22:53:46.449Z,17.00
2022-09-27T22:56:12.928Z,17.00
2022-09-27T22:58:39.415Z,17.00
2022-09-27T23:01:05.931Z,17.00
2022-09-27T23:03:32.539Z,17.00
2022-09-27T23:05:59.056Z,17.00
2022-09-27T23:08:25.538Z,16.90
2022-09-27T23:10:52.007Z,17.00
2022-09-27T23:13:18.484Z,17.00
2022-09-27T23:15:44.980Z,17.00
2022-09-27T23:18:11.447Z,17.00
2022-09-27T23:20:37.923Z,17.00
2022-09-27T23:23:04.398Z,17.00
2022-09-27T23:25:30.873Z,17.00
2022-09-27T23:27:57.341Z,17.00
2022-09-27T23:30:23.827Z,17.00
2022-09-27T23:32:50.315Z,17.00
2022-09-27T23:35:16.794Z,17.00
2022-09-27T23:37:43.255Z,17.10
2022-09-27T23:40:09.722Z,17.00
2022-09-27T23:42:36.197Z,17.10
2022-09-27T23:45:02.669Z,17.00
2022-09-27T23:47:29.139Z,17.00
2022-09-27T23:49:55.619Z,17.00
2022-09-27T23:52:22.074Z,16.90
2022-09-27T23:54:48.534Z,16.90
2022-09-27T23:57:15.004Z,16.90
2022-09-27T23:59:41.458Z,16.90
